CST,Max TemperatureF,Mean TemperatureF,Min TemperatureF,Max Dew PointF,MeanDew PointF,Min DewpointF,Max Humidity, Mean Humidity, Min Humidity, Max Sea Level PressureIn, Mean Sea Level PressureIn, Min Sea Level PressureIn, Max VisibilityMiles, Mean VisibilityMiles, Min VisibilityMiles, Max Wind SpeedMPH, Mean Wind SpeedMPH, Max Gust SpeedMPH,PrecipitationIn, CloudCover, Events, WindDirDegrees
2011-12-1,50,36,23,32,29,23,100,77,43,30.36,30.31,30.22,10.0,9.1,1.5,8,1,,0.00,0,,172
2011-12-2,53,42,30,41,34,28,100,74,47,30.44,30.40,30.33,10.0,9.4,5.0,6,1,,0.00,1,,130
2011-12-3,62,50,37,34,31,27,81,46,27,30.41,30.30,30.17,10.0,10.0,10.0,20,6,28,0.00,0,,171
2011-12-4,55,52,50,50,43,30,100,75,38,30.18,30.15,30.11,10.0,6.4,1.2,16,9,24,1.37,7,Rain,154
2011-12-5,48,44,39,46,40,37,100,91,87,30.15,30.10,30.04,10.0,7.6,3.0,18,11,23,1.71,8,Rain,352
2011-12-6,41,39,37,37,36,34,93,88,87,30.16,30.12,30.08,10.0,9.5,4.0,15,10,,0.00,8,,353
2011-12-7,39,34,28,34,30,27,93,83,65,30.27,30.13,30.02,10.0,9.9,7.0,18,9,24,0.00,5,,329
2011-12-8,44,36,28,32,27,21,100,75,39,30.36,30.28,30.24,10.0,8.5,4.0,10,5,18,0.00,0,,210
2011-12-9,48,38,28,32,29,25,93,80,46,30.47,30.32,30.23,10.0,9.8,7.0,16,4,20,0.00,2,,298
2011-12-10,35,30,23,27,19,14,93,67,44,30.63,30.55,30.47,10.0,10.0,10.0,9,5,,0.00,0,,15
2011-12-11,42,32,21,23,20,16,93,71,34,30.58,30.50,30.42,10.0,9.9,7.0,7,1,,0.00,0,,75
2011-12-12,51,38,24,41,29,21,93,74,38,30.46,30.42,30.38,10.0,9.4,4.0,7,1,,0.00,2,,147
2011-12-13,50,44,37,46,42,36,100,90,82,30.49,30.41,30.31,7.0,3.7,0.2,8,2,,0.03,8,Fog-Rain,176
2011-12-14,64,55,46,52,49,45,100,77,59,30.30,30.15,30.00,10.0,8.1,3.0,18,9,26,0.00,3,,196
2011-12-15,64,50,37,59,49,32,94,78,63,30.30,30.06,29.93,10.0,9.8,7.0,21,14,28,0.18,6,Rain,265
2011-12-16,37,32,28,32,30,27,93,81,75,30.39,30.34,30.29,10.0,10.0,10.0,13,8,,0.00,5,Snow,352
2011-12-17,42,34,26,32,28,23,100,81,53,30.41,30.35,30.28,10.0,7.7,0.5,13,4,,0.00,1,Fog,245
2011-12-18,53,40,28,34,32,27,100,73,44,30.37,30.29,30.17,10.0,8.1,1.8,14,6,17,0.00,0,,208
2011-12-19,53,47,41,37,34,32,81,59,47,30.20,30.14,30.10,10.0,10.0,10.0,13,7,18,0.00,7,,195
2011-12-20,60,48,37,57,46,34,94,86,76,30.13,29.96,29.74,10.0,9.4,4.0,17,3,28,0.18,7,Rain,162
2011-12-21,62,54,44,59,45,39,94,80,71,30.03,29.89,29.72,10.0,9.7,5.0,23,12,29,0.27,7,Rain,228
2011-12-22,46,44,41,43,41,37,93,90,76,30.20,30.07,29.98,10.0,8.1,3.0,12,3,23,0.31,7,Rain,329
2011-12-23,41,38,35,37,34,30,93,84,75,30.41,30.33,30.19,10.0,7.9,3.0,12,7,17,0.00,8,,295
2011-12-24,44,37,30,32,29,28,93,79,53,30.48,30.42,30.37,10.0,10.0,7.0,8,5,,0.00,1,,220
2011-12-25,55,44,32,34,30,27,93,68,33,30.39,30.33,30.25,10.0,10.0,10.0,16,6,22,0.00,0,,258
2011-12-26,44,35,26,36,31,23,93,79,57,30.38,30.20,29.88,10.0,9.6,3.0,12,2,10,0.22,2,Rain,106
2011-12-27,41,37,33,37,34,30,100,86,70,30.05,29.81,29.63,10.0,7.1,1.5,22,7,33,0.39,8,Rain-Snow,295
2011-12-28,42,36,30,34,30,28,93,81,61,30.14,30.08,30.00,10.0,10.0,10.0,9,5,,0.00,0,,247
2011-12-29,55,44,32,41,34,30,93,63,41,30.00,29.88,29.81,10.0,10.0,10.0,24,10,31,0.00,1,,208
2011-12-30,59,52,46,46,41,36,87,65,45,29.91,29.79,29.68,10.0,10.0,10.0,26,14,39,0.00,5,,224
2011-12-31,55,46,37,36,34,32,87,60,41,30.12,30.00,29.88,10.0,10.0,10.0,15,8,24,0.00,1,,207